createdAt,value
2017-11-28T00:00:00.996Z,3.3
2017-11-28T00:01:20.753Z,3.3
2017-11-28T00:02:45.500Z,3.4
2017-11-28T00:04:07.780Z,3.3
2017-11-28T00:05:27.523Z,3.3
2017-11-28T00:06:47.256Z,3.4
2017-11-28T00:08:06.978Z,3.4
2017-11-28T00:09:29.214Z,3.3
2017-11-28T00:10:48.935Z,3.4
2017-11-28T00:12:08.629Z,3.4
2017-11-28T00:13:28.356Z,3.3
2017-11-28T00:14:48.095Z,3.3
2017-11-28T00:16:07.815Z,3.4
2017-11-28T00:17:27.596Z,3.4
2017-11-28T00:18:54.898Z,3.3
2017-11-28T00:20:14.620Z,3.3
2017-11-28T00:21:34.345Z,3.3
2017-11-28T00:23:04.232Z,3.3
2017-11-28T00:24:26.490Z,3.3
2017-11-28T00:25:46.192Z,3.3
2017-11-28T00:27:08.415Z,3.3
2017-11-28T00:28:28.205Z,3.3
2017-11-28T00:29:50.482Z,3.4
2017-11-28T00:31:10.222Z,3.3
2017-11-28T00:32:29.935Z,3.3
2017-11-28T00:33:52.157Z,3.4
2017-11-28T00:35:11.858Z,3.4
2017-11-28T00:36:39.166Z,3.4
2017-11-28T00:37:58.884Z,3.4
2017-11-28T00:39:18.573Z,3.4
2017-11-28T00:40:38.305Z,3.4
2017-11-28T00:42:03.101Z,3.3
2017-11-28T00:43:22.868Z,3.4
2017-11-28T00:44:47.705Z,3.4
2017-11-28T00:46:07.440Z,3.4
2017-11-28T00:47:34.744Z,3.4
2017-11-28T00:48:54.445Z,3.3
2017-11-28T00:50:14.193Z,3.3
2017-11-28T00:51:38.963Z,3.3
2017-11-28T00:52:58.677Z,3.3
2017-11-28T00:54:20.918Z,3.3
2017-11-28T00:55:43.174Z,3.3
2017-11-28T00:57:02.924Z,3.3
2017-11-28T00:58:22.647Z,3.3
2017-11-28T00:59:44.906Z,3.2
2017-11-28T01:01:22.368Z,3.2
2017-11-28T01:02:57.264Z,3.3
2017-11-28T01:04:17.017Z,3.3
2017-11-28T01:05:39.284Z,3.3
2017-11-28T01:07:14.148Z,3.3
2017-11-28T01:08:33.899Z,3.2
2017-11-28T01:09:53.613Z,3.2
2017-11-28T01:11:13.306Z,3.2
2017-11-28T01:12:35.548Z,3.3
2017-11-28T01:13:55.250Z,3.3
2017-11-28T01:15:25.081Z,3.2
2017-11-28T01:16:44.808Z,3.2
2017-11-28T01:18:04.584Z,3.3
2017-11-28T01:19:24.303Z,3.4
2017-11-28T01:20:46.560Z,3.4
2017-11-28T01:22:06.281Z,3.5
2017-11-28T01:23:31.026Z,3.4
2017-11-28T01:24:50.718Z,3.4
2017-11-28T01:26:10.488Z,3.4
2017-11-28T01:27:30.185Z,3.4
2017-11-28T01:28:54.935Z,3.4
2017-11-28T01:30:19.697Z,3.5
2017-11-28T01:31:39.414Z,3.5
2017-11-28T01:32:59.125Z,3.4
2017-11-28T01:34:18.822Z,3.4
2017-11-28T01:35:38.575Z,3.4
2017-11-28T01:37:03.374Z,3.3
2017-11-28T01:38:28.135Z,3.4
2017-11-28T01:39:47.876Z,3.4
2017-11-28T01:41:10.100Z,3.4
2017-11-28T01:42:29.816Z,3.4
2017-11-28T01:43:49.520Z,3.4
2017-11-28T01:45:11.795Z,3.4
2017-11-28T01:46:34.038Z,3.3
2017-11-28T01:47:53.776Z,3.3
2017-11-28T01:49:16.005Z,3.3
2017-11-28T01:50:35.747Z,3.4
2017-11-28T01:51:55.472Z,3.4
2017-11-28T01:53:15.225Z,3.4
2017-11-28T01:54:37.489Z,3.4
2017-11-28T01:55:57.204Z,3.4
2017-11-28T01:57:29.595Z,3.4
2017-11-28T01:58:51.830Z,3.4
2017-11-28T02:00:11.552Z,3.4
2017-11-28T02:01:31.266Z,3.4
2017-11-28T02:02:53.548Z,3.4
2017-11-28T02:04:13.267Z,3.3
2017-11-28T02:05:32.970Z,3.4
2017-11-28T02:06:55.219Z,3.4
2017-11-28T02:08:14.923Z,3.4
2017-11-28T02:09:49.833Z,3.4
2017-11-28T02:11:14.615Z,3.4
2017-11-28T02:12:34.325Z,3.4
2017-11-28T02:13:56.569Z,3.4
2017-11-28T02:15:16.274Z,3.4
2017-11-28T02:16:41.041Z,3.4
2017-11-28T02:18:00.730Z,3.4
2017-11-28T02:19:20.428Z,3.4
2017-11-28T02:20:42.692Z,3.4
2017-11-28T02:22:02.496Z,3.4
2017-11-28T02:23:24.732Z,3.4
2017-11-28T02:24:44.421Z,3.4
2017-11-28T02:26:04.127Z,3.4
2017-11-28T02:27:23.879Z,3.4
2017-11-28T02:28:56.240Z,3.3
2017-11-28T02:30:18.526Z,3.4
2017-11-28T02:31:43.306Z,3.4
2017-11-28T02:33:05.569Z,3.4
2017-11-28T02:34:25.287Z,3.4
2017-11-28T02:35:47.542Z,3.4
2017-11-28T02:37:07.307Z,3.4
2017-11-28T02:38:29.527Z,3.4
2017-11-28T02:39:49.225Z,3.4
2017-11-28T02:41:11.467Z,3.4
2017-11-28T02:42:31.183Z,3.4
2017-11-28T02:43:50.896Z,3.5
2017-11-28T02:45:15.730Z,3.5
2017-11-28T02:46:37.957Z,3.5
2017-11-28T02:47:57.689Z,3.6
2017-11-28T02:49:17.417Z,3.5
2017-11-28T02:50:39.640Z,3.5
2017-11-28T02:52:07.023Z,3.5
2017-11-28T02:53:29.265Z,3.5
2017-11-28T02:54:48.981Z,3.5
2017-11-28T02:56:11.215Z,3.6
2017-11-28T02:57:30.924Z,3.5
2017-11-28T02:58:50.640Z,3.4
2017-11-28T03:00:12.879Z,3.5
2017-11-28T03:01:32.643Z,3.5
2017-11-28T03:02:52.382Z,3.5
2017-11-28T03:04:12.106Z,3.5
2017-11-28T03:05:47.027Z,3.5
2017-11-28T03:07:06.724Z,3.5
2017-11-28T03:08:29.028Z,3.5
2017-11-28T03:09:58.924Z,3.5
2017-11-28T03:11:21.157Z,3.5
2017-11-28T03:12:40.896Z,3.6
2017-11-28T03:14:00.586Z,3.6
2017-11-28T03:15:32.984Z,3.5
2017-11-28T03:16:52.731Z,3.5
2017-11-28T03:18:17.574Z,3.5
2017-11-28T03:19:37.338Z,3.6
2017-11-28T03:20:57.105Z,3.6
2017-11-28T03:22:16.880Z,3.6
2017-11-28T03:23:36.613Z,3.6
2017-11-28T03:24:58.893Z,3.6
2017-11-28T03:26:26.222Z,3.6
2017-11-28T03:27:48.443Z,3.6
2017-11-28T03:29:13.197Z,3.6
2017-11-28T03:30:35.467Z,3.6
2017-11-28T03:32:00.283Z,3.6
2017-11-28T03:33:20.036Z,3.6
2017-11-28T03:34:39.736Z,3.6
2017-11-28T03:36:22.243Z,3.7
2017-11-28T03:37:47.053Z,3.6
2017-11-28T03:39:06.780Z,3.6
2017-11-28T03:40:31.559Z,3.6
2017-11-28T03:41:53.878Z,3.6
2017-11-28T03:43:16.181Z,3.7
2017-11-28T03:44:40.942Z,3.7
2017-11-28T03:46:03.174Z,3.6
2017-11-28T03:47:25.419Z,3.6
2017-11-28T03:48:45.187Z,3.5
2017-11-28T03:50:04.880Z,3.5
2017-11-28T03:51:24.577Z,3.5
2017-11-28T03:52:44.296Z,3.5
2017-11-28T03:54:06.542Z,3.5
2017-11-28T03:55:26.286Z,3.5
2017-11-28T03:56:46.012Z,3.5
2017-11-28T03:58:13.366Z,3.4
2017-11-28T03:59:35.624Z,3.4
2017-11-28T04:00:57.853Z,3.4
2017-11-28T04:02:17.571Z,3.3
2017-11-28T04:03:37.336Z,3.4
2017-11-28T04:04:57.103Z,3.4
2017-11-28T04:06:24.416Z,3.4
2017-11-28T04:07:46.691Z,3.4
2017-11-28T04:09:13.992Z,3.3
2017-11-28T04:10:33.715Z,3.4
2017-11-28T04:11:53.413Z,3.4
2017-11-28T04:13:18.194Z,3.4
2017-11-28T04:14:40.424Z,3.4
2017-11-28T04:16:07.759Z,3.5
2017-11-28T04:17:45.247Z,3.5
2017-11-28T04:19:04.986Z,3.5
2017-11-28T04:20:27.243Z,3.4
2017-11-28T04:21:52.050Z,3.4
2017-11-28T04:23:11.828Z,3.5
2017-11-28T04:24:36.608Z,3.4
2017-11-28T04:25:56.308Z,3.5
2017-11-28T04:27:21.093Z,3.4
2017-11-28T04:28:40.845Z,3.4
2017-11-28T04:30:03.089Z,3.3
2017-11-28T04:31:30.442Z,3.3
2017-11-28T04:32:50.136Z,3.3
2017-11-28T04:34:12.357Z,3.3
2017-11-28T04:35:32.096Z,3.3
2017-11-28T04:36:51.852Z,3.3
2017-11-28T04:38:11.598Z,3.3
2017-11-28T04:39:33.834Z,3.3
2017-11-28T04:40:56.108Z,3.3
2017-11-28T04:42:18.327Z,3.3
2017-11-28T04:43:43.112Z,3.4
2017-11-28T04:45:02.828Z,3.4
2017-11-28T04:46:25.054Z,3.4
2017-11-28T04:47:47.305Z,3.3
2017-11-28T04:49:17.170Z,3.4
2017-11-28T04:50:36.900Z,3.4
2017-11-28T04:51:56.712Z,3.4
2017-11-28T04:53:19.005Z,3.4
2017-11-28T04:54:43.791Z,3.4
2017-11-28T04:56:11.145Z,3.3
2017-11-28T04:57:33.366Z,3.3
2017-11-28T04:58:58.126Z,3.3
2017-11-28T05:00:17.896Z,3.2
2017-11-28T05:01:37.618Z,3.3
2017-11-28T05:03:02.374Z,3.3
2017-11-28T05:04:22.132Z,3.2
2017-11-28T05:05:41.870Z,3.2
2017-11-28T05:07:01.609Z,3.2
2017-11-28T05:08:21.313Z,3.2
2017-11-28T05:09:41.024Z,3.3
2017-11-28T05:11:03.305Z,3.2
2017-11-28T05:12:25.539Z,3.3
2017-11-28T05:13:57.902Z,3.2
2017-11-28T05:15:20.196Z,3.3
2017-11-28T05:16:39.904Z,3.3
2017-11-28T05:18:04.665Z,3.3
2017-11-28T05:19:34.533Z,3.2
2017-11-28T05:21:01.860Z,3.2
2017-11-28T05:22:24.104Z,3.3
2017-11-28T05:23:53.984Z,3.3
2017-11-28T05:25:13.677Z,3.3
2017-11-28T05:26:38.465Z,3.2
2017-11-28T05:27:58.182Z,3.2
2017-11-28T05:29:17.894Z,3.3
2017-11-28T05:30:42.671Z,3.2
2017-11-28T05:32:02.373Z,3.2
2017-11-28T05:33:22.126Z,3.2
2017-11-28T05:34:49.436Z,3.2
2017-11-28T05:36:11.740Z,3.3
2017-11-28T05:37:36.532Z,3.2
2017-11-28T05:38:58.783Z,3.2
2017-11-28T05:40:18.492Z,3.2
2017-11-28T05:41:38.250Z,3.1
2017-11-28T05:43:03.012Z,3.1
2017-11-28T05:44:32.845Z,3.1
2017-11-28T05:45:57.627Z,3
2017-11-28T05:47:17.385Z,3.1
2017-11-28T05:48:37.087Z,3.1
2017-11-28T05:50:01.881Z,3.2
2017-11-28T05:51:39.306Z,3.2
2017-11-28T05:52:59.009Z,3.1
2017-11-28T05:54:21.251Z,3.1
2017-11-28T05:55:46.024Z,3.2
2017-11-28T05:57:08.326Z,3.1
2017-11-28T05:58:28.026Z,3.1
2017-11-28T05:59:47.749Z,3
2017-11-28T06:01:10.004Z,3
2017-11-28T06:02:29.737Z,3
2017-11-28T06:03:49.436Z,3
2017-11-28T06:05:09.183Z,3
2017-11-28T06:06:36.576Z,3.1
2017-11-28T06:07:56.317Z,3.1
2017-11-28T06:09:16.033Z,3
2017-11-28T06:10:50.963Z,3
2017-11-28T06:12:10.748Z,3
2017-11-28T06:13:30.446Z,2.9
2017-11-28T06:14:50.142Z,3
2017-11-28T06:16:09.857Z,2.9
2017-11-28T06:17:32.155Z,2.9
2017-11-28T06:18:54.388Z,3
2017-11-28T06:20:16.667Z,2.9
2017-11-28T06:21:36.416Z,2.9
2017-11-28T06:22:56.155Z,3
2017-11-28T06:24:15.858Z,3
2017-11-28T06:25:35.602Z,2.9
2017-11-28T06:26:55.310Z,2.9
2017-11-28T06:28:15.057Z,2.9
2017-11-28T06:29:34.792Z,2.9
2017-11-28T06:30:54.496Z,2.9
2017-11-28T06:32:14.231Z,3
2017-11-28T06:33:33.935Z,2.9
2017-11-28T06:34:53.635Z,2.8
2017-11-28T06:36:15.865Z,2.9
2017-11-28T06:37:38.169Z,2.8
2017-11-28T06:39:00.410Z,2.8
2017-11-28T06:40:25.228Z,2.8
2017-11-28T06:41:55.035Z,2.8
2017-11-28T06:43:22.394Z,2.8
2017-11-28T06:44:42.093Z,2.7
2017-11-28T06:46:09.392Z,2.7
2017-11-28T06:47:36.739Z,2.7
2017-11-28T06:48:56.479Z,2.7
2017-11-28T06:50:16.240Z,2.6
2017-11-28T06:51:35.957Z,2.7
2017-11-28T06:52:55.691Z,2.7
2017-11-28T06:54:15.392Z,2.7
2017-11-28T06:55:37.656Z,2.7
2017-11-28T06:57:02.430Z,2.8
2017-11-28T06:58:22.128Z,2.8
2017-11-28T06:59:44.349Z,2.8
2017-11-28T07:01:04.054Z,2.9
2017-11-28T07:02:23.748Z,2.9
2017-11-28T07:03:53.581Z,2.8
2017-11-28T07:05:15.879Z,2.8
2017-11-28T07:06:35.599Z,2.8
2017-11-28T07:07:55.290Z,2.8
2017-11-28T07:09:15.003Z,2.9
2017-11-28T07:10:34.769Z,2.9
2017-11-28T07:11:54.503Z,2.8
2017-11-28T07:13:14.259Z,2.8
2017-11-28T07:14:36.562Z,2.8
2017-11-28T07:15:56.300Z,2.8
2017-11-28T07:17:16.050Z,2.8
2017-11-28T07:18:35.755Z,2.9
2017-11-28T07:19:55.480Z,2.9
2017-11-28T07:21:15.200Z,2.9
2017-11-28T07:22:37.495Z,2.8
2017-11-28T07:24:04.772Z,2.8
2017-11-28T07:25:39.684Z,2.8
2017-11-28T07:27:01.915Z,2.8
2017-11-28T07:28:21.681Z,2.8
2017-11-28T07:29:43.919Z,2.8
2017-11-28T07:31:03.618Z,2.9
2017-11-28T07:32:25.860Z,2.9
2017-11-28T07:33:45.580Z,2.9
2017-11-28T07:35:07.903Z,3
2017-11-28T07:36:27.595Z,3
2017-11-28T07:37:47.308Z,3
2017-11-28T07:39:07.013Z,3.1
2017-11-28T07:40:26.707Z,3.1
2017-11-28T07:41:46.457Z,3.1
2017-11-28T07:43:08.704Z,3
2017-11-28T07:44:28.440Z,3
2017-11-28T07:45:48.146Z,3
2017-11-28T07:47:07.851Z,2.9
2017-11-28T07:48:27.548Z,2.9
2017-11-28T07:49:52.326Z,3
2017-11-28T07:51:14.574Z,2.9
2017-11-28T07:52:36.805Z,2.9
2017-11-28T07:53:56.561Z,2.9
2017-11-28T07:55:18.820Z,2.9
2017-11-28T07:56:38.533Z,2.9
2017-11-28T07:57:58.229Z,2.9
2017-11-28T07:59:17.934Z,3
2017-11-28T08:00:37.683Z,3
2017-11-28T08:01:57.390Z,3
2017-11-28T08:03:17.102Z,3
2017-11-28T08:04:41.858Z,3
2017-11-28T08:06:06.631Z,3.1
2017-11-28T08:07:28.862Z,3.1
2017-11-28T08:08:48.551Z,3.1
2017-11-28T08:10:08.254Z,3.1
2017-11-28T08:11:28.019Z,3
2017-11-28T08:12:47.740Z,3
2017-11-28T08:14:07.444Z,3
2017-11-28T08:15:29.676Z,3
2017-11-28T08:16:49.401Z,2.9
2017-11-28T08:18:09.111Z,3
2017-11-28T08:19:28.854Z,3.1
2017-11-28T08:20:48.591Z,3.1
2017-11-28T08:22:10.901Z,3.2
2017-11-28T08:23:33.149Z,3.2
2017-11-28T08:24:52.890Z,3.2
2017-11-28T08:26:12.590Z,3.3
2017-11-28T08:27:32.310Z,3.3
2017-11-28T08:28:52.038Z,3.3
2017-11-28T08:30:11.797Z,3.3
2017-11-28T08:31:31.520Z,3.4
2017-11-28T08:32:51.263Z,3.4
2017-11-28T08:34:18.545Z,3.4
2017-11-28T08:35:45.866Z,3.4
2017-11-28T08:37:05.621Z,3.4
2017-11-28T08:38:25.372Z,3.4
2017-11-28T08:39:47.651Z,3.4
2017-11-28T08:41:07.344Z,3.4
2017-11-28T08:42:27.036Z,3.5
2017-11-28T08:43:46.759Z,3.5
2017-11-28T08:45:06.508Z,3.5
2017-11-28T08:46:26.270Z,3.6
2017-11-28T08:47:45.996Z,3.5
2017-11-28T08:49:05.750Z,3.7
2017-11-28T08:50:25.526Z,3.7
2017-11-28T08:51:50.353Z,3.7
2017-11-28T08:53:12.601Z,3.6
2017-11-28T08:54:32.315Z,3.8
2017-11-28T08:55:52.054Z,3.8
2017-11-28T08:57:11.755Z,3.9
2017-11-28T08:58:31.454Z,4.1
2017-11-28T08:59:51.230Z,4.2
2017-11-28T09:01:16.037Z,4.4
2017-11-28T09:02:43.364Z,4.6
2017-11-28T09:04:03.068Z,4.7
2017-11-28T09:05:27.901Z,4.9
2017-11-28T09:06:47.588Z,5.1
2017-11-28T09:08:30.087Z,5.3
2017-11-28T09:09:52.320Z,5.4
2017-11-28T09:11:14.570Z,5.4
2017-11-28T09:12:36.853Z,5.5
2017-11-28T09:13:56.597Z,5.4
2017-11-28T09:15:16.342Z,5.2
2017-11-28T09:16:41.122Z,5.2
2017-11-28T09:18:05.918Z,5.1
2017-11-28T09:19:25.644Z,5
2017-11-28T09:20:55.500Z,5
2017-11-28T09:22:15.239Z,4.9
2017-11-28T09:23:34.943Z,4.7
2017-11-28T09:24:57.174Z,4.6
2017-11-28T09:26:16.874Z,4.5
2017-11-28T09:27:36.594Z,4.5
2017-11-28T09:28:56.326Z,4.6
2017-11-28T09:30:18.608Z,4.5
2017-11-28T09:31:43.377Z,4.4
2017-11-28T09:33:05.676Z,4.5
2017-11-28T09:34:25.410Z,4.5
2017-11-28T09:35:45.114Z,4.4
2017-11-28T09:37:04.881Z,4.6
2017-11-28T09:38:24.587Z,4.8
2017-11-28T09:39:44.315Z,5
2017-11-28T09:41:04.065Z,5.3
2017-11-28T09:42:28.853Z,5.5
2017-11-28T09:43:51.090Z,5.6
2017-11-28T09:45:10.809Z,5.6
2017-11-28T09:46:30.535Z,5.7
2017-11-28T09:47:50.317Z,5.9
2017-11-28T09:49:15.167Z,5.9
2017-11-28T09:50:37.433Z,5.7
2017-11-28T09:51:57.126Z,5.6
2017-11-28T09:53:19.395Z,5.9
2017-11-28T09:54:39.154Z,5.9
2017-11-28T09:56:01.379Z,6
2017-11-28T09:57:21.084Z,6.1
2017-11-28T09:58:40.841Z,6.2
2017-11-28T10:00:03.084Z,6.5
2017-11-28T10:01:27.864Z,6.7
2017-11-28T10:02:52.628Z,6.7
2017-11-28T10:04:12.320Z,6.7
2017-11-28T10:05:34.554Z,6.9
2017-11-28T10:06:56.785Z,6.7
2017-11-28T10:08:19.032Z,6.7
2017-11-28T10:09:38.748Z,6.9
2017-11-28T10:10:58.515Z,6.9
2017-11-28T10:12:20.772Z,6.8
2017-11-28T10:13:43.026Z,6.7
2017-11-28T10:15:02.732Z,6.7
2017-11-28T10:16:24.980Z,6.9
2017-11-28T10:17:44.765Z,7.1
2017-11-28T10:19:04.467Z,7.2
2017-11-28T10:20:24.169Z,6.9
2017-11-28T10:21:43.902Z,7
2017-11-28T10:23:03.603Z,6.9
2017-11-28T10:24:23.296Z,6.9
2017-11-28T10:25:42.987Z,7
2017-11-28T10:27:17.905Z,6.8
2017-11-28T10:28:37.660Z,6.7
2017-11-28T10:30:05.002Z,6.8
2017-11-28T10:31:24.699Z,6.8
2017-11-28T10:32:46.921Z,6.8
2017-11-28T10:34:06.639Z,7
2017-11-28T10:35:28.929Z,7.1
2017-11-28T10:36:48.639Z,6.8
2017-11-28T10:38:08.351Z,6.9
2017-11-28T10:39:30.613Z,6.8
2017-11-28T10:40:50.403Z,6.7
2017-11-28T10:42:10.182Z,6.7
2017-11-28T10:43:29.910Z,6.7
2017-11-28T10:44:54.717Z,6.9
2017-11-28T10:46:14.481Z,6.7
2017-11-28T10:47:34.179Z,6.9
2017-11-28T10:48:53.944Z,6.9
2017-11-28T10:50:16.161Z,6.9
2017-11-28T10:51:35.915Z,6.8
2017-11-28T10:52:55.642Z,6.6
2017-11-28T10:54:15.416Z,6.6
2017-11-28T10:55:35.146Z,6.7
2017-11-28T10:56:54.885Z,6.7
2017-11-28T10:58:19.706Z,6.8
2017-11-28T10:59:39.473Z,7.1
2017-11-28T11:01:01.704Z,7.2
2017-11-28T11:02:26.475Z,7.4
2017-11-28T11:03:46.195Z,7.3
2017-11-28T11:05:05.910Z,7.2
2017-11-28T11:06:25.639Z,7.4
2017-11-28T11:07:47.863Z,7.3
2017-11-28T11:09:07.573Z,7.4
2017-11-28T11:10:27.285Z,7.8
2017-11-28T11:11:46.978Z,8
2017-11-28T11:13:16.808Z,7.9
2017-11-28T11:14:36.522Z,7.7
2017-11-28T11:16:01.284Z,7.8
2017-11-28T11:17:21.041Z,7.6
2017-11-28T11:18:40.810Z,7.5
2017-11-28T11:20:00.539Z,7.3
2017-11-28T11:21:20.291Z,7.2
2017-11-28T11:22:40.087Z,7.4
2017-11-28T11:23:59.867Z,7.6
2017-11-28T11:25:29.690Z,7.6
2017-11-28T11:26:57.045Z,7.3
2017-11-28T11:28:37.008Z,7.1
2017-11-28T11:29:56.759Z,7.1
2017-11-28T11:31:16.534Z,7.3
2017-11-28T11:32:36.296Z,7.7
2017-11-28T11:34:03.630Z,7.8
2017-11-28T11:35:23.380Z,8
2017-11-28T11:36:43.071Z,8.6
2017-11-28T11:38:02.784Z,8.8
2017-11-28T11:39:22.539Z,9.1
2017-11-28T11:40:49.888Z,8.7
2017-11-28T11:42:12.111Z,8.4
2017-11-28T11:43:31.852Z,7.9
2017-11-28T11:44:51.546Z,7.3
2017-11-28T11:46:16.303Z,7.2
2017-11-28T11:47:38.545Z,7.1
2017-11-28T11:49:00.821Z,6.8
2017-11-28T11:50:25.593Z,6.3
2017-11-28T11:51:45.317Z,6
2017-11-28T11:53:07.597Z,5.8
2017-11-28T11:54:27.309Z,5.7
2017-11-28T11:55:47.007Z,5.7
2017-11-28T11:57:09.246Z,5.8
2017-11-28T11:58:28.942Z,5.7
2017-11-28T11:59:48.671Z,5.6
2017-11-28T12:01:13.452Z,5.4
2017-11-28T12:02:35.699Z,5.3
2017-11-28T12:03:57.982Z,5.4
2017-11-28T12:05:22.794Z,5.5
2017-11-28T12:06:52.648Z,5.5
2017-11-28T12:08:12.341Z,5.7
2017-11-28T12:09:39.666Z,5.8
2017-11-28T12:10:59.380Z,6
2017-11-28T12:12:19.115Z,6.4
2017-11-28T12:13:38.811Z,6.6
2017-11-28T12:14:58.517Z,6.7
2017-11-28T12:16:18.227Z,6.5
2017-11-28T12:17:37.927Z,6.3
2017-11-28T12:18:57.618Z,6.4
2017-11-28T12:20:19.878Z,6.6
2017-11-28T12:21:39.675Z,6.8
2017-11-28T12:23:01.974Z,7
2017-11-28T12:24:24.206Z,7.3
2017-11-28T12:25:43.921Z,7.2
2017-11-28T12:27:03.669Z,6.6
2017-11-28T12:28:23.368Z,6.3
2017-11-28T12:29:43.073Z,6.1
2017-11-28T12:31:12.902Z,5.8
2017-11-28T12:32:32.627Z,5.8
2017-11-28T12:33:54.955Z,5.6
2017-11-28T12:35:14.691Z,5.7
2017-11-28T12:36:39.466Z,5.8
2017-11-28T12:38:01.751Z,6
2017-11-28T12:39:21.468Z,6.2
2017-11-28T12:40:41.165Z,6.5
2017-11-28T12:42:11.052Z,6.8
2017-11-28T12:43:33.326Z,6.7
2017-11-28T12:44:53.040Z,6.8
2017-11-28T12:46:17.799Z,7.1
2017-11-28T12:47:37.561Z,7.4
2017-11-28T12:48:57.288Z,7
2017-11-28T12:50:16.991Z,7
2017-11-28T12:51:39.283Z,6.7
2017-11-28T12:52:59.058Z,6.4
2017-11-28T12:54:18.824Z,6.3
2017-11-28T12:55:38.572Z,6.3
2017-11-28T12:56:58.321Z,6.3
2017-11-28T12:58:18.050Z,5.9
2017-11-28T12:59:42.827Z,5.8
2017-11-28T13:01:02.584Z,5.7
2017-11-28T13:02:24.877Z,5.7
2017-11-28T13:03:52.222Z,5.7
2017-11-28T13:05:11.962Z,5.6
2017-11-28T13:06:49.407Z,5.7
2017-11-28T13:08:09.112Z,5.7
2017-11-28T13:09:28.814Z,5.8
2017-11-28T13:10:53.577Z,5.9
2017-11-28T13:12:18.359Z,6
2017-11-28T13:13:38.076Z,5.8
2017-11-28T13:15:00.299Z,6.2
2017-11-28T13:16:20.036Z,6.6
2017-11-28T13:17:39.811Z,6.6
2017-11-28T13:19:02.098Z,6.4
2017-11-28T13:20:26.911Z,6.2
2017-11-28T13:21:49.180Z,6.3
2017-11-28T13:23:08.907Z,6.5
2017-11-28T13:24:28.607Z,6.3
2017-11-28T13:25:53.418Z,6.5
2017-11-28T13:27:13.143Z,6.4
2017-11-28T13:28:32.871Z,6.1
2017-11-28T13:30:00.164Z,5.9
2017-11-28T13:31:22.388Z,6.2
2017-11-28T13:32:44.663Z,6.2
2017-11-28T13:34:06.886Z,6.1
2017-11-28T13:35:44.376Z,6
2017-11-28T13:37:06.605Z,5.9
2017-11-28T13:38:26.309Z,5.9
2017-11-28T13:39:48.545Z,6.1
2017-11-28T13:41:08.262Z,5.9
2017-11-28T13:42:30.481Z,5.8
2017-11-28T13:43:52.728Z,5.8
2017-11-28T13:45:12.498Z,5.8
2017-11-28T13:46:32.191Z,5.7
2017-11-28T13:48:04.576Z,5.6
2017-11-28T13:49:24.308Z,5.6
2017-11-28T13:50:44.055Z,5.4
2017-11-28T13:52:06.336Z,5.3
2017-11-28T13:53:28.556Z,5.6
2017-11-28T13:54:50.863Z,5.7
2017-11-28T13:56:10.579Z,5.5
2017-11-28T13:57:30.277Z,5.4
2017-11-28T13:58:55.048Z,5.6
2017-11-28T14:00:14.798Z,5.6
2017-11-28T14:01:39.577Z,5.7
2017-11-28T14:03:01.810Z,5.6
2017-11-28T14:04:24.048Z,5.6
2017-11-28T14:05:51.368Z,5.5
2017-11-28T14:07:11.076Z,5.1
2017-11-28T14:08:35.836Z,4.7
2017-11-28T14:10:00.613Z,4.6
2017-11-28T14:11:22.854Z,4.6
2017-11-28T14:12:47.652Z,4.4
2017-11-28T14:14:07.370Z,4.4
2017-11-28T14:15:27.075Z,4.5
2017-11-28T14:16:49.355Z,5.1
2017-11-28T14:18:09.077Z,5.3
2017-11-28T14:19:28.782Z,5.3
2017-11-28T14:20:51.009Z,5.4
2017-11-28T14:22:15.804Z,5.6
2017-11-28T14:23:38.054Z,5.7
2017-11-28T14:25:00.292Z,5.9
2017-11-28T14:26:19.994Z,6.1
2017-11-28T14:27:39.731Z,6.2
2017-11-28T14:29:04.517Z,5.8
2017-11-28T14:30:24.292Z,5.2
2017-11-28T14:31:46.518Z,4.8
2017-11-28T14:33:06.222Z,4.6
2017-11-28T14:34:28.444Z,4.4
2017-11-28T14:35:48.147Z,4.2
2017-11-28T14:37:17.987Z,4.3
2017-11-28T14:38:37.727Z,4.2
2017-11-28T14:39:57.435Z,4
2017-11-28T14:41:19.691Z,3.9
2017-11-28T14:42:39.438Z,3.7
2017-11-28T14:43:59.195Z,3.7
2017-11-28T14:45:23.964Z,3.6
2017-11-28T14:46:43.700Z,3.4
2017-11-28T14:48:03.400Z,3.3
2017-11-28T14:49:25.626Z,3.3
2017-11-28T14:50:47.869Z,3.2
2017-11-28T14:52:07.598Z,3.3
2017-11-28T14:53:34.882Z,3.3
2017-11-28T14:54:57.169Z,3.5
2017-11-28T14:56:16.874Z,3.4
2017-11-28T14:57:39.142Z,3.1
2017-11-28T14:59:11.508Z,3.1
2017-11-28T15:00:36.275Z,3
2017-11-28T15:01:58.516Z,2.9
2017-11-28T15:03:18.220Z,2.8
2017-11-28T15:04:42.984Z,2.7
2017-11-28T15:06:05.212Z,2.7
2017-11-28T15:07:24.914Z,2.6
2017-11-28T15:08:44.658Z,2.6
2017-11-28T15:10:06.926Z,2.6
2017-11-28T15:11:26.652Z,2.5
2017-11-28T15:12:48.919Z,2.4
2017-11-28T15:14:08.658Z,2.3
2017-11-28T15:15:28.425Z,2.3
2017-11-28T15:16:50.747Z,2.3
2017-11-28T15:18:10.442Z,2.2
2017-11-28T15:19:37.716Z,2.2
2017-11-28T15:20:57.439Z,2.1
2017-11-28T15:22:17.146Z,2
2017-11-28T15:23:36.892Z,2
2017-11-28T15:24:56.631Z,1.9
2017-11-28T15:26:18.890Z,1.9
2017-11-28T15:27:38.597Z,1.9
2017-11-28T15:29:03.434Z,1.9
2017-11-28T15:30:25.662Z,1.8
2017-11-28T15:31:47.975Z,1.8
2017-11-28T15:33:07.689Z,1.8
2017-11-28T15:34:29.921Z,1.8
2017-11-28T15:35:49.615Z,1.7
2017-11-28T15:37:09.338Z,1.7
2017-11-28T15:38:31.579Z,1.6
2017-11-28T15:39:58.948Z,1.6
2017-11-28T15:41:21.190Z,1.5
2017-11-28T15:42:40.896Z,1.5
2017-11-28T15:44:03.123Z,1.5
2017-11-28T15:45:22.840Z,1.4
2017-11-28T15:46:42.537Z,1.4
2017-11-28T15:48:07.349Z,1.4
2017-11-28T15:49:27.084Z,1.4
2017-11-28T15:50:46.778Z,1.3
2017-11-28T15:52:11.579Z,1.3
2017-11-28T15:53:36.358Z,1.3
2017-11-28T15:54:58.674Z,1.2
2017-11-28T15:56:18.388Z,1.2
2017-11-28T15:57:40.618Z,1.1
2017-11-28T15:59:00.321Z,1.1
2017-11-28T16:00:20.067Z,1
2017-11-28T16:01:42.339Z,1
2017-11-28T16:03:04.562Z,1
2017-11-28T16:04:26.806Z,0.9
2017-11-28T16:05:46.518Z,0.9
2017-11-28T16:07:06.210Z,0.9
2017-11-28T16:08:25.938Z,0.9
2017-11-28T16:09:50.684Z,0.9
2017-11-28T16:11:12.945Z,0.8
2017-11-28T16:12:32.685Z,0.8
2017-11-28T16:14:08.956Z,0.8
2017-11-28T16:15:28.680Z,0.8
2017-11-28T16:16:48.385Z,0.8
2017-11-28T16:18:20.785Z,0.8
2017-11-28T16:19:40.508Z,0.7
2017-11-28T16:21:02.748Z,0.7
2017-11-28T16:22:22.453Z,0.7
2017-11-28T16:23:42.154Z,0.7
2017-11-28T16:25:01.852Z,0.7
2017-11-28T16:26:26.624Z,0.6
2017-11-28T16:27:46.346Z,0.5
2017-11-28T16:29:06.070Z,0.5
2017-11-28T16:30:25.791Z,0.5
2017-11-28T16:31:45.482Z,0.5
2017-11-28T16:33:07.736Z,0.5
2017-11-28T16:34:27.454Z,0.4
2017-11-28T16:35:49.696Z,0.3
2017-11-28T16:37:11.930Z,0.3
2017-11-28T16:38:31.670Z,0.3
2017-11-28T16:39:51.375Z,0.2
2017-11-28T16:41:16.135Z,0.2
2017-11-28T16:42:35.831Z,0.1
2017-11-28T16:43:55.544Z,0.1
2017-11-28T16:45:15.252Z,0.1
2017-11-28T16:46:40.033Z,0.1
2017-11-28T16:48:04.816Z,0.1
2017-11-28T16:49:24.514Z,0.1
2017-11-28T16:50:44.260Z,0.1
2017-11-28T16:52:04.015Z,0.1
2017-11-28T16:53:26.278Z,0.1
2017-11-28T16:54:46.017Z,0.1
2017-11-28T16:56:08.263Z,0.1
2017-11-28T16:57:28.029Z,0.1
2017-11-28T16:58:47.770Z,0.1
2017-11-28T17:00:07.488Z,0.2
2017-11-28T17:01:29.744Z,0.3
2017-11-28T17:02:49.487Z,0.3
2017-11-28T17:04:09.202Z,0.4
2017-11-28T17:05:28.962Z,0.4
2017-11-28T17:06:48.681Z,0.5
2017-11-28T17:08:21.067Z,0.4
2017-11-28T17:09:40.804Z,0.4
2017-11-28T17:11:03.093Z,0.3
2017-11-28T17:12:22.789Z,0.2
2017-11-28T17:13:42.493Z,0.2
2017-11-28T17:15:02.223Z,0.2
2017-11-28T17:16:21.937Z,0.2
2017-11-28T17:17:41.699Z,0.2
2017-11-28T17:19:06.512Z,0.2
2017-11-28T17:20:26.260Z,0.2
2017-11-28T17:21:45.997Z,0.1
2017-11-28T17:23:05.689Z,0.2
2017-11-28T17:24:25.467Z,0.2
2017-11-28T17:25:47.707Z,0.2
2017-11-28T17:27:07.455Z,0.3
2017-11-28T17:28:29.687Z,0.3
2017-11-28T17:29:49.414Z,0.4
2017-11-28T17:31:09.116Z,0.4
2017-11-28T17:32:28.876Z,0.3
2017-11-28T17:33:53.677Z,0.2
2017-11-28T17:35:18.496Z,0.2
2017-11-28T17:36:38.224Z,0.2
2017-11-28T17:37:57.951Z,0.2
2017-11-28T17:39:20.167Z,0.2
2017-11-28T17:40:50.069Z,0.1
2017-11-28T17:42:09.771Z,0.1
2017-11-28T17:43:29.483Z,0.1
2017-11-28T17:44:49.191Z,0
2017-11-28T17:46:16.508Z,0
2017-11-28T17:47:41.274Z,0
2017-11-28T17:49:01.035Z,0
2017-11-28T17:50:20.739Z,0.1
2017-11-28T17:51:42.978Z,0.1
2017-11-28T17:53:02.690Z,0.1
2017-11-28T17:54:24.938Z,0
2017-11-28T17:55:52.271Z,0
2017-11-28T17:57:12.001Z,0
2017-11-28T17:58:34.232Z,0
2017-11-28T17:59:53.982Z,0
2017-11-28T18:01:21.307Z,-0.1
2017-11-28T18:02:46.076Z,-0.1
2017-11-28T18:04:05.793Z,-0.1
2017-11-28T18:05:25.556Z,-0.1
2017-11-28T18:06:45.263Z,-0.1
2017-11-28T18:08:07.508Z,-0.1
2017-11-28T18:09:29.797Z,-0.1
2017-11-28T18:10:49.572Z,-0.1
2017-11-28T18:12:09.305Z,-0.2
2017-11-28T18:13:39.179Z,-0.1
2017-11-28T18:15:03.988Z,-0.2
2017-11-28T18:16:23.748Z,-0.2
2017-11-28T18:17:43.501Z,-0.2
2017-11-28T18:19:03.282Z,-0.3
2017-11-28T18:20:28.137Z,-0.3
2017-11-28T18:21:52.967Z,-0.4
2017-11-28T18:23:15.256Z,-0.3
2017-11-28T18:24:42.611Z,-0.3
2017-11-28T18:26:02.330Z,-0.3
2017-11-28T18:27:29.658Z,-0.3
2017-11-28T18:28:51.956Z,-0.1
2017-11-28T18:30:11.697Z,-0.1
2017-11-28T18:31:33.942Z,-0.1
2017-11-28T18:32:53.718Z,-0.1
2017-11-28T18:34:15.952Z,0
2017-11-28T18:35:35.709Z,0.1
2017-11-28T18:36:57.951Z,0.1
2017-11-28T18:38:20.200Z,0.2
2017-11-28T18:39:42.434Z,0.2
2017-11-28T18:41:02.167Z,0.2
2017-11-28T18:42:32.020Z,0.3
2017-11-28T18:43:51.719Z,0.4
2017-11-28T18:45:16.477Z,0.6
2017-11-28T18:46:36.172Z,0.4
2017-11-28T18:48:00.940Z,0.4
2017-11-28T18:49:20.705Z,0.4
2017-11-28T18:50:42.969Z,0.3
2017-11-28T18:52:02.671Z,0.3